sensor_id;sensor_type;location;lat;lon;timestamp;P1;durP1;ratioP1;P2;durP2;ratioP2
55489;SDS011;44029;52.956;4.772;2023-08-06T00:01:42;7.43;;;2.10;;
55489;SDS011;44029;52.956;4.772;2023-08-06T00:04:07;2.88;;;1.70;;
55489;SDS011;44029;52.956;4.772;2023-08-06T00:06:32;2.95;;;1.90;;
55489;SDS011;44029;52.956;4.772;2023-08-06T00:08:58;2.08;;;1.30;;
55489;SDS011;44029;52.956;4.772;2023-08-06T00:11:23;7.28;;;1.58;;
55489;SDS011;44029;52.956;4.772;2023-08-06T00:13:48;2.17;;;1.65;;
55489;SDS011;44029;52.956;4.772;2023-08-06T00:16:14;3.88;;;2.05;;
55489;SDS011;44029;52.956;4.772;2023-08-06T00:18:39;2.40;;;1.50;;
55489;SDS011;44029;52.956;4.772;2023-08-06T00:21:05;7.18;;;2.50;;
55489;SDS011;44029;52.956;4.772;2023-08-06T00:23:30;2.53;;;1.80;;
55489;SDS011;44029;52.956;4.772;2023-08-06T00:25:56;6.88;;;1.50;;
55489;SDS011;44029;52.956;4.772;2023-08-06T00:28:21;2.47;;;1.27;;
55489;SDS011;44029;52.956;4.772;2023-08-06T00:30:52;3.30;;;1.20;;
55489;SDS011;44029;52.956;4.772;2023-08-06T00:33:21;3.63;;;1.90;;
55489;SDS011;44029;52.956;4.772;2023-08-06T00:35:47;7.80;;;1.27;;
55489;SDS011;44029;52.956;4.772;2023-08-06T00:38:12;4.45;;;1.55;;
55489;SDS011;44029;52.956;4.772;2023-08-06T00:40:38;2.47;;;1.65;;
55489;SDS011;44029;52.956;4.772;2023-08-06T00:43:03;2.80;;;1.33;;
55489;SDS011;44029;52.956;4.772;2023-08-06T00:45:28;3.30;;;1.45;;
55489;SDS011;44029;52.956;4.772;2023-08-06T00:47:55;2.03;;;1.23;;
55489;SDS011;44029;52.956;4.772;2023-08-06T00:50:21;2.80;;;1.35;;
55489;SDS011;44029;52.956;4.772;2023-08-06T00:52:48;1.98;;;0.90;;
55489;SDS011;44029;52.956;4.772;2023-08-06T00:55:14;2.63;;;1.00;;
55489;SDS011;44029;52.956;4.772;2023-08-06T00:57:40;2.05;;;1.13;;
55489;SDS011;44029;52.956;4.772;2023-08-06T01:00:06;6.15;;;1.48;;
55489;SDS011;44029;52.956;4.772;2023-08-06T01:02:32;4.15;;;0.77;;
55489;SDS011;44029;52.956;4.772;2023-08-06T01:04:58;4.38;;;1.50;;
55489;SDS011;44029;52.956;4.772;2023-08-06T01:12:45;2.08;;;1.35;;
55489;SDS011;44029;52.956;4.772;2023-08-06T01:15:29;11.50;;;1.48;;
55489;SDS011;44029;52.956;4.772;2023-08-06T01:17:59;14.02;;;4.32;;
55489;SDS011;44029;52.956;4.772;2023-08-06T01:20:29;13.80;;;4.40;;
55489;SDS011;44029;52.956;4.772;2023-08-06T01:22:55;13.75;;;7.05;;
55489;SDS011;44029;52.956;4.772;2023-08-06T01:25:20;15.25;;;8.57;;
55489;SDS011;44029;52.956;4.772;2023-08-06T01:27:55;16.73;;;7.50;;
55489;SDS011;44029;52.956;4.772;2023-08-06T01:30:28;14.23;;;7.88;;
55489;SDS011;44029;52.956;4.772;2023-08-06T01:33:00;12.98;;;8.45;;
55489;SDS011;44029;52.956;4.772;2023-08-06T01:35:29;13.77;;;8.40;;
55489;SDS011;44029;52.956;4.772;2023-08-06T01:37:55;15.15;;;8.85;;
55489;SDS011;44029;52.956;4.772;2023-08-06T01:40:21;12.32;;;7.40;;
55489;SDS011;44029;52.956;4.772;2023-08-06T01:42:46;15.20;;;7.88;;
55489;SDS011;44029;52.956;4.772;2023-08-06T01:45:12;13.07;;;8.25;;
55489;SDS011;44029;52.956;4.772;2023-08-06T01:47:37;19.52;;;9.82;;
55489;SDS011;44029;52.956;4.772;2023-08-06T01:50:02;14.13;;;8.02;;
55489;SDS011;44029;52.956;4.772;2023-08-06T01:52:28;14.18;;;8.80;;
55489;SDS011;44029;52.956;4.772;2023-08-06T01:54:54;15.43;;;8.38;;
55489;SDS011;44029;52.956;4.772;2023-08-06T01:57:20;12.57;;;8.15;;
55489;SDS011;44029;52.956;4.772;2023-08-06T01:59:45;14.43;;;8.35;;
55489;SDS011;44029;52.956;4.772;2023-08-06T02:02:11;17.25;;;9.32;;
55489;SDS011;44029;52.956;4.772;2023-08-06T02:04:37;17.90;;;9.52;;
55489;SDS011;44029;52.956;4.772;2023-08-06T02:07:02;12.35;;;7.80;;
55489;SDS011;44029;52.956;4.772;2023-08-06T02:09:27;16.02;;;8.32;;
55489;SDS011;44029;52.956;4.772;2023-08-06T02:11:53;15.30;;;8.85;;
55489;SDS011;44029;52.956;4.772;2023-08-06T02:14:18;13.40;;;8.93;;
55489;SDS011;44029;52.956;4.772;2023-08-06T02:16:43;23.88;;;9.18;;
55489;SDS011;44029;52.956;4.772;2023-08-06T02:19:09;18.00;;;9.80;;
55489;SDS011;44029;52.956;4.772;2023-08-06T02:21:34;20.02;;;8.75;;
55489;SDS011;44029;52.956;4.772;2023-08-06T02:24:00;12.68;;;5.78;;
55489;SDS011;44029;52.956;4.772;2023-08-06T02:26:25;18.08;;;9.13;;
55489;SDS011;44029;52.956;4.772;2023-08-06T02:28:51;21.60;;;9.65;;
55489;SDS011;44029;52.956;4.772;2023-08-06T02:31:16;17.08;;;11.02;;
55489;SDS011;44029;52.956;4.772;2023-08-06T02:33:42;18.40;;;10.63;;
55489;SDS011;44029;52.956;4.772;2023-08-06T02:36:07;16.23;;;9.30;;
55489;SDS011;44029;52.956;4.772;2023-08-06T02:38:32;16.92;;;10.70;;
55489;SDS011;44029;52.956;4.772;2023-08-06T02:40:58;18.02;;;10.65;;
55489;SDS011;44029;52.956;4.772;2023-08-06T02:43:23;14.57;;;8.32;;
55489;SDS011;44029;52.956;4.772;2023-08-06T02:45:49;17.58;;;9.73;;
55489;SDS011;44029;52.956;4.772;2023-08-06T02:48:14;14.07;;;9.73;;
55489;SDS011;44029;52.956;4.772;2023-08-06T02:50:40;16.92;;;10.63;;
55489;SDS011;44029;52.956;4.772;2023-08-06T02:53:07;16.95;;;8.75;;
55489;SDS011;44029;52.956;4.772;2023-08-06T02:55:33;16.08;;;9.32;;
55489;SDS011;44029;52.956;4.772;2023-08-06T02:57:59;16.45;;;9.85;;
55489;SDS011;44029;52.956;4.772;2023-08-06T03:00:26;17.17;;;10.50;;
55489;SDS011;44029;52.956;4.772;2023-08-06T03:02:51;18.23;;;9.95;;
55489;SDS011;44029;52.956;4.772;2023-08-06T03:05:16;12.48;;;7.20;;
55489;SDS011;44029;52.956;4.772;2023-08-06T03:07:42;15.55;;;9.50;;
55489;SDS011;44029;52.956;4.772;2023-08-06T03:10:07;17.58;;;9.02;;
55489;SDS011;44029;52.956;4.772;2023-08-06T03:12:33;14.73;;;8.80;;
55489;SDS011;44029;52.956;4.772;2023-08-06T03:14:58;13.20;;;8.65;;
55489;SDS011;44029;52.956;4.772;2023-08-06T03:17:23;13.43;;;7.43;;
55489;SDS011;44029;52.956;4.772;2023-08-06T03:19:49;19.60;;;9.77;;
55489;SDS011;44029;52.956;4.772;2023-08-06T03:22:14;13.50;;;8.98;;
55489;SDS011;44029;52.956;4.772;2023-08-06T03:24:39;15.70;;;8.48;;
55489;SDS011;44029;52.956;4.772;2023-08-06T03:27:05;16.60;;;9.85;;
55489;SDS011;44029;52.956;4.772;2023-08-06T03:29:30;15.68;;;9.10;;
55489;SDS011;44029;52.956;4.772;2023-08-06T03:31:56;15.93;;;10.02;;
55489;SDS011;44029;52.956;4.772;2023-08-06T03:34:21;18.90;;;9.80;;
55489;SDS011;44029;52.956;4.772;2023-08-06T03:36:46;16.30;;;9.32;;
55489;SDS011;44029;52.956;4.772;2023-08-06T03:39:12;10.82;;;6.35;;
55489;SDS011;44029;52.956;4.772;2023-08-06T03:41:38;15.73;;;9.93;;
55489;SDS011;44029;52.956;4.772;2023-08-06T03:44:04;10.70;;;6.90;;
55489;SDS011;44029;52.956;4.772;2023-08-06T03:46:30;13.60;;;7.43;;
55489;SDS011;44029;52.956;4.772;2023-08-06T03:48:58;17.17;;;8.32;;
55489;SDS011;44029;52.956;4.772;2023-08-06T03:51:24;13.38;;;7.82;;
55489;SDS011;44029;52.956;4.772;2023-08-06T03:53:49;13.98;;;7.68;;
55489;SDS011;44029;52.956;4.772;2023-08-06T03:56:15;13.88;;;7.90;;
55489;SDS011;44029;52.956;4.772;2023-08-06T03:58:40;13.52;;;7.30;;
55489;SDS011;44029;52.956;4.772;2023-08-06T04:01:05;13.10;;;8.00;;
55489;SDS011;44029;52.956;4.772;2023-08-06T04:03:31;12.55;;;7.57;;
55489;SDS011;44029;52.956;4.772;2023-08-06T04:05:56;15.07;;;7.22;;
55489;SDS011;44029;52.956;4.772;2023-08-06T04:08:21;17.17;;;9.68;;
55489;SDS011;44029;52.956;4.772;2023-08-06T04:10:51;14.32;;;8.38;;
55489;SDS011;44029;52.956;4.772;2023-08-06T04:13:17;13.60;;;8.60;;
55489;SDS011;44029;52.956;4.772;2023-08-06T04:15:43;13.77;;;9.05;;
55489;SDS011;44029;52.956;4.772;2023-08-06T04:18:09;15.18;;;9.20;;
55489;SDS011;44029;52.956;4.772;2023-08-06T04:20:34;15.57;;;8.77;;
55489;SDS011;44029;52.956;4.772;2023-08-06T04:23:01;17.05;;;9.73;;
55489;SDS011;44029;52.956;4.772;2023-08-06T04:25:31;12.13;;;7.65;;
55489;SDS011;44029;52.956;4.772;2023-08-06T04:27:56;10.90;;;6.68;;
55489;SDS011;44029;52.956;4.772;2023-08-06T04:30:22;14.65;;;8.23;;
55489;SDS011;44029;52.956;4.772;2023-08-06T04:32:49;13.25;;;8.20;;
55489;SDS011;44029;52.956;4.772;2023-08-06T04:35:14;17.13;;;8.30;;
55489;SDS011;44029;52.956;4.772;2023-08-06T04:37:40;14.25;;;8.32;;
55489;SDS011;44029;52.956;4.772;2023-08-06T04:40:05;16.35;;;8.65;;
55489;SDS011;44029;52.956;4.772;2023-08-06T04:42:31;15.70;;;9.10;;
55489;SDS011;44029;52.956;4.772;2023-08-06T04:44:56;12.70;;;7.88;;
55489;SDS011;44029;52.956;4.772;2023-08-06T04:47:22;16.77;;;8.73;;
55489;SDS011;44029;52.956;4.772;2023-08-06T04:49:47;15.90;;;9.10;;
55489;SDS011;44029;52.956;4.772;2023-08-06T04:52:12;20.17;;;9.65;;
55489;SDS011;44029;52.956;4.772;2023-08-06T04:54:38;14.15;;;7.20;;
55489;SDS011;44029;52.956;4.772;2023-08-06T04:57:03;10.88;;;6.57;;
55489;SDS011;44029;52.956;4.772;2023-08-06T04:59:29;14.32;;;8.98;;
55489;SDS011;44029;52.956;4.772;2023-08-06T05:01:54;14.05;;;7.70;;
55489;SDS011;44029;52.956;4.772;2023-08-06T05:04:19;12.75;;;7.55;;
55489;SDS011;44029;52.956;4.772;2023-08-06T05:06:45;12.07;;;8.23;;
55489;SDS011;44029;52.956;4.772;2023-08-06T05:09:10;17.08;;;8.75;;
55489;SDS011;44029;52.956;4.772;2023-08-06T05:11:35;12.85;;;7.00;;
55489;SDS011;44029;52.956;4.772;2023-08-06T05:14:01;10.05;;;5.95;;
55489;SDS011;44029;52.956;4.772;2023-08-06T05:16:26;13.13;;;8.55;;
55489;SDS011;44029;52.956;4.772;2023-08-06T05:18:52;11.75;;;6.57;;
55489;SDS011;44029;52.956;4.772;2023-08-06T05:21:17;17.92;;;8.52;;
55489;SDS011;44029;52.956;4.772;2023-08-06T05:23:42;12.35;;;6.90;;
55489;SDS011;44029;52.956;4.772;2023-08-06T05:26:08;13.38;;;7.47;;
55489;SDS011;44029;52.956;4.772;2023-08-06T05:28:34;15.30;;;7.95;;
55489;SDS011;44029;52.956;4.772;2023-08-06T05:31:02;14.80;;;7.78;;
55489;SDS011;44029;52.956;4.772;2023-08-06T05:33:28;14.73;;;7.03;;
55489;SDS011;44029;52.956;4.772;2023-08-06T05:35:54;13.98;;;8.40;;
55489;SDS011;44029;52.956;4.772;2023-08-06T05:38:19;12.85;;;7.90;;
55489;SDS011;44029;52.956;4.772;2023-08-06T05:40:45;13.07;;;8.23;;
55489;SDS011;44029;52.956;4.772;2023-08-06T05:43:10;17.95;;;9.27;;
55489;SDS011;44029;52.956;4.772;2023-08-06T05:45:35;15.68;;;8.38;;
55489;SDS011;44029;52.956;4.772;2023-08-06T05:48:00;12.05;;;7.22;;
55489;SDS011;44029;52.956;4.772;2023-08-06T05:50:26;16.35;;;8.63;;
55489;SDS011;44029;52.956;4.772;2023-08-06T05:52:51;15.48;;;7.85;;
55489;SDS011;44029;52.956;4.772;2023-08-06T05:55:17;11.50;;;6.47;;
55489;SDS011;44029;52.956;4.772;2023-08-06T05:57:42;15.45;;;8.35;;
55489;SDS011;44029;52.956;4.772;2023-08-06T06:00:08;13.30;;;6.97;;
55489;SDS011;44029;52.956;4.772;2023-08-06T06:02:33;11.63;;;7.07;;
55489;SDS011;44029;52.956;4.772;2023-08-06T06:04:59;10.73;;;5.88;;
55489;SDS011;44029;52.956;4.772;2023-08-06T06:07:24;13.02;;;5.72;;
55489;SDS011;44029;52.956;4.772;2023-08-06T06:09:49;11.80;;;6.30;;
55489;SDS011;44029;52.956;4.772;2023-08-06T06:12:15;9.70;;;6.25;;
55489;SDS011;44029;52.956;4.772;2023-08-06T06:14:40;10.27;;;6.32;;
55489;SDS011;44029;52.956;4.772;2023-08-06T06:17:06;7.00;;;5.55;;
55489;SDS011;44029;52.956;4.772;2023-08-06T06:19:31;7.28;;;4.82;;
55489;SDS011;44029;52.956;4.772;2023-08-06T06:21:56;8.38;;;5.55;;
55489;SDS011;44029;52.956;4.772;2023-08-06T06:24:22;5.70;;;3.38;;
55489;SDS011;44029;52.956;4.772;2023-08-06T06:26:48;8.50;;;5.32;;
55489;SDS011;44029;52.956;4.772;2023-08-06T06:29:13;8.43;;;5.30;;
55489;SDS011;44029;52.956;4.772;2023-08-06T06:31:38;12.13;;;5.68;;
55489;SDS011;44029;52.956;4.772;2023-08-06T06:34:04;7.13;;;4.43;;
55489;SDS011;44029;52.956;4.772;2023-08-06T06:36:29;8.77;;;5.60;;
55489;SDS011;44029;52.956;4.772;2023-08-06T06:38:54;12.25;;;4.93;;
55489;SDS011;44029;52.956;4.772;2023-08-06T06:41:20;7.55;;;4.85;;
55489;SDS011;44029;52.956;4.772;2023-08-06T06:43:45;7.32;;;4.80;;
55489;SDS011;44029;52.956;4.772;2023-08-06T06:46:10;7.90;;;5.50;;
55489;SDS011;44029;52.956;4.772;2023-08-06T06:48:36;8.73;;;5.10;;
55489;SDS011;44029;52.956;4.772;2023-08-06T06:51:01;11.38;;;5.03;;
55489;SDS011;44029;52.956;4.772;2023-08-06T06:53:27;7.00;;;4.70;;
55489;SDS011;44029;52.956;4.772;2023-08-06T06:55:53;5.20;;;3.80;;
55489;SDS011;44029;52.956;4.772;2023-08-06T06:58:19;5.97;;;3.65;;
55489;SDS011;44029;52.956;4.772;2023-08-06T07:00:46;4.88;;;3.63;;
55489;SDS011;44029;52.956;4.772;2023-08-06T07:03:12;7.38;;;3.35;;
55489;SDS011;44029;52.956;4.772;2023-08-06T07:05:37;7.30;;;3.35;;
55489;SDS011;44029;52.956;4.772;2023-08-06T07:08:03;7.90;;;4.03;;
55489;SDS011;44029;52.956;4.772;2023-08-06T07:10:28;5.88;;;3.13;;
55489;SDS011;44029;52.956;4.772;2023-08-06T07:12:53;9.43;;;3.60;;
55489;SDS011;44029;52.956;4.772;2023-08-06T07:15:19;4.75;;;2.90;;
55489;SDS011;44029;52.956;4.772;2023-08-06T07:17:45;6.47;;;3.03;;
55489;SDS011;44029;52.956;4.772;2023-08-06T07:20:10;5.53;;;2.58;;
55489;SDS011;44029;52.956;4.772;2023-08-06T07:22:36;3.55;;;2.28;;
55489;SDS011;44029;52.956;4.772;2023-08-06T07:25:01;4.28;;;2.63;;
55489;SDS011;44029;52.956;4.772;2023-08-06T07:27:27;1.20;;;1.10;;
55489;SDS011;44029;52.956;4.772;2023-08-06T07:29:52;4.65;;;1.95;;
55489;SDS011;44029;52.956;4.772;2023-08-06T07:32:18;7.35;;;2.88;;
55489;SDS011;44029;52.956;4.772;2023-08-06T07:34:43;6.80;;;2.17;;
55489;SDS011;44029;52.956;4.772;2023-08-06T07:37:08;5.53;;;2.13;;
55489;SDS011;44029;52.956;4.772;2023-08-06T07:39:34;3.03;;;1.83;;
55489;SDS011;44029;52.956;4.772;2023-08-06T07:41:59;3.92;;;1.90;;
55489;SDS011;44029;52.956;4.772;2023-08-06T07:44:27;6.82;;;2.03;;
55489;SDS011;44029;52.956;4.772;2023-08-06T07:46:52;4.80;;;2.08;;
55489;SDS011;44029;52.956;4.772;2023-08-06T07:49:18;3.42;;;1.88;;
55489;SDS011;44029;52.956;4.772;2023-08-06T07:51:43;3.20;;;1.88;;
55489;SDS011;44029;52.956;4.772;2023-08-06T07:54:08;2.83;;;1.35;;
55489;SDS011;44029;52.956;4.772;2023-08-06T07:56:34;3.70;;;2.25;;
55489;SDS011;44029;52.956;4.772;2023-08-06T07:59:01;4.22;;;1.98;;
55489;SDS011;44029;52.956;4.772;2023-08-06T08:01:27;6.75;;;1.90;;
55489;SDS011;44029;52.956;4.772;2023-08-06T08:03:52;2.97;;;1.80;;
55489;SDS011;44029;52.956;4.772;2023-08-06T08:06:17;5.32;;;2.63;;
55489;SDS011;44029;52.956;4.772;2023-08-06T08:08:43;1.90;;;1.27;;
55489;SDS011;44029;52.956;4.772;2023-08-06T08:11:08;6.95;;;2.72;;
55489;SDS011;44029;52.956;4.772;2023-08-06T08:13:34;3.08;;;1.80;;
55489;SDS011;44029;52.956;4.772;2023-08-06T08:15:59;3.35;;;1.98;;
55489;SDS011;44029;52.956;4.772;2023-08-06T08:18:26;3.42;;;1.40;;
55489;SDS011;44029;52.956;4.772;2023-08-06T08:20:52;3.83;;;1.85;;
55489;SDS011;44029;52.956;4.772;2023-08-06T08:23:17;7.15;;;2.88;;
55489;SDS011;44029;52.956;4.772;2023-08-06T08:25:43;4.40;;;2.30;;
55489;SDS011;44029;52.956;4.772;2023-08-06T08:28:08;4.65;;;2.08;;
55489;SDS011;44029;52.956;4.772;2023-08-06T08:30:34;5.70;;;1.85;;
55489;SDS011;44029;52.956;4.772;2023-08-06T08:32:59;8.45;;;2.97;;
55489;SDS011;44029;52.956;4.772;2023-08-06T08:35:24;6.15;;;1.77;;
55489;SDS011;44029;52.956;4.772;2023-08-06T08:37:50;2.45;;;1.48;;
55489;SDS011;44029;52.956;4.772;2023-08-06T08:40:16;6.70;;;2.22;;
55489;SDS011;44029;52.956;4.772;2023-08-06T08:42:42;4.40;;;1.70;;
55489;SDS011;44029;52.956;4.772;2023-08-06T08:45:14;5.72;;;1.83;;
55489;SDS011;44029;52.956;4.772;2023-08-06T08:47:40;6.47;;;2.03;;
55489;SDS011;44029;52.956;4.772;2023-08-06T08:50:07;8.95;;;1.98;;
55489;SDS011;44029;52.956;4.772;2023-08-06T08:52:33;14.77;;;1.83;;
55489;SDS011;44029;52.956;4.772;2023-08-06T08:55:01;4.13;;;1.77;;
55489;SDS011;44029;52.956;4.772;2023-08-06T08:57:27;3.38;;;1.88;;
55489;SDS011;44029;52.956;4.772;2023-08-06T08:59:52;5.72;;;2.35;;
55489;SDS011;44029;52.956;4.772;2023-08-06T09:02:18;2.28;;;1.70;;
55489;SDS011;44029;52.956;4.772;2023-08-06T09:04:46;3.20;;;1.70;;
55489;SDS011;44029;52.956;4.772;2023-08-06T09:07:13;3.85;;;1.23;;
55489;SDS011;44029;52.956;4.772;2023-08-06T09:09:43;2.80;;;1.90;;
55489;SDS011;44029;52.956;4.772;2023-08-06T09:12:12;3.75;;;1.90;;
55489;SDS011;44029;52.956;4.772;2023-08-06T09:14:40;3.50;;;1.90;;
55489;SDS011;44029;52.956;4.772;2023-08-06T09:17:05;3.47;;;1.83;;
55489;SDS011;44029;52.956;4.772;2023-08-06T09:19:31;4.85;;;2.60;;
55489;SDS011;44029;52.956;4.772;2023-08-06T09:21:59;3.45;;;1.90;;
55489;SDS011;44029;52.956;4.772;2023-08-06T09:24:24;3.70;;;1.75;;
55489;SDS011;44029;52.956;4.772;2023-08-06T09:26:51;2.72;;;1.52;;
55489;SDS011;44029;52.956;4.772;2023-08-06T09:29:16;5.07;;;1.25;;
55489;SDS011;44029;52.956;4.772;2023-08-06T09:31:45;3.17;;;1.45;;
55489;SDS011;44029;52.956;4.772;2023-08-06T09:34:22;3.35;;;1.48;;
55489;SDS011;44029;52.956;4.772;2023-08-06T09:39:16;2.53;;;1.40;;
55489;SDS011;44029;52.956;4.772;2023-08-06T09:41:43;2.28;;;1.58;;
55489;SDS011;44029;52.956;4.772;2023-08-06T09:44:19;4.65;;;1.60;;
55489;SDS011;44029;52.956;4.772;2023-08-06T09:46:53;3.13;;;1.25;;
55489;SDS011;44029;52.956;4.772;2023-08-06T09:49:24;1.60;;;0.80;;
55489;SDS011;44029;52.956;4.772;2023-08-06T09:51:51;6.43;;;2.67;;
55489;SDS011;44029;52.956;4.772;2023-08-06T09:54:20;2.95;;;1.42;;
55489;SDS011;44029;52.956;4.772;2023-08-06T09:56:47;2.67;;;1.35;;
55489;SDS011;44029;52.956;4.772;2023-08-06T09:59:13;1.98;;;0.88;;
55489;SDS011;44029;52.956;4.772;2023-08-06T10:01:40;5.22;;;1.33;;
55489;SDS011;44029;52.956;4.772;2023-08-06T10:04:06;3.83;;;1.45;;
55489;SDS011;44029;52.956;4.772;2023-08-06T10:06:37;1.60;;;0.95;;
55489;SDS011;44029;52.956;4.772;2023-08-06T10:09:03;5.95;;;1.10;;
55489;SDS011;44029;52.956;4.772;2023-08-06T10:11:29;2.78;;;1.38;;
55489;SDS011;44029;52.956;4.772;2023-08-06T10:13:58;1.95;;;1.45;;
55489;SDS011;44029;52.956;4.772;2023-08-06T10:16:29;3.00;;;1.23;;
55489;SDS011;44029;52.956;4.772;2023-08-06T10:18:55;5.53;;;1.30;;
55489;SDS011;44029;52.956;4.772;2023-08-06T10:21:23;3.22;;;1.40;;
55489;SDS011;44029;52.956;4.772;2023-08-06T10:23:53;1.15;;;0.50;;
55489;SDS011;44029;52.956;4.772;2023-08-06T10:26:20;2.03;;;1.07;;
55489;SDS011;44029;52.956;4.772;2023-08-06T10:28:45;3.40;;;1.60;;
55489;SDS011;44029;52.956;4.772;2023-08-06T10:31:11;2.92;;;1.50;;
55489;SDS011;44029;52.956;4.772;2023-08-06T10:33:43;5.43;;;2.45;;
55489;SDS011;44029;52.956;4.772;2023-08-06T10:36:09;4.97;;;2.97;;
55489;SDS011;44029;52.956;4.772;2023-08-06T10:38:36;3.97;;;1.20;;
55489;SDS011;44029;52.956;4.772;2023-08-06T10:41:15;1.80;;;1.15;;
55489;SDS011;44029;52.956;4.772;2023-08-06T10:43:44;6.43;;;2.92;;
55489;SDS011;44029;52.956;4.772;2023-08-06T10:46:21;4.60;;;2.55;;
55489;SDS011;44029;52.956;4.772;2023-08-06T10:48:48;4.80;;;1.35;;
55489;SDS011;44029;52.956;4.772;2023-08-06T10:51:14;5.20;;;1.67;;
55489;SDS011;44029;52.956;4.772;2023-08-06T10:53:43;2.05;;;1.33;;
55489;SDS011;44029;52.956;4.772;2023-08-06T10:56:14;26.90;;;9.18;;
55489;SDS011;44029;52.956;4.772;2023-08-06T10:58:41;7.25;;;3.55;;
55489;SDS011;44029;52.956;4.772;2023-08-06T11:01:07;2.03;;;1.20;;
55489;SDS011;44029;52.956;4.772;2023-08-06T11:03:33;10.93;;;1.20;;
55489;SDS011;44029;52.956;4.772;2023-08-06T11:05:59;1.65;;;0.90;;
55489;SDS011;44029;52.956;4.772;2023-08-06T11:08:26;6.40;;;2.25;;
55489;SDS011;44029;52.956;4.772;2023-08-06T11:10:54;2.92;;;1.30;;
55489;SDS011;44029;52.956;4.772;2023-08-06T11:13:20;1.27;;;0.98;;
55489;SDS011;44029;52.956;4.772;2023-08-06T11:15:46;3.63;;;1.65;;
55489;SDS011;44029;52.956;4.772;2023-08-06T11:18:11;10.02;;;4.60;;
55489;SDS011;44029;52.956;4.772;2023-08-06T11:20:37;3.40;;;1.33;;
55489;SDS011;44029;52.956;4.772;2023-08-06T11:23:04;4.85;;;1.63;;
55489;SDS011;44029;52.956;4.772;2023-08-06T11:25:30;3.75;;;1.17;;
55489;SDS011;44029;52.956;4.772;2023-08-06T11:27:55;3.25;;;1.38;;
55489;SDS011;44029;52.956;4.772;2023-08-06T11:30:21;8.50;;;4.15;;
55489;SDS011;44029;52.956;4.772;2023-08-06T11:32:46;2.83;;;1.15;;
55489;SDS011;44029;52.956;4.772;2023-08-06T11:35:13;3.75;;;2.45;;
55489;SDS011;44029;52.956;4.772;2023-08-06T11:37:43;3.30;;;1.30;;
55489;SDS011;44029;52.956;4.772;2023-08-06T11:40:11;3.95;;;2.30;;
55489;SDS011;44029;52.956;4.772;2023-08-06T11:42:37;8.63;;;3.78;;
55489;SDS011;44029;52.956;4.772;2023-08-06T11:45:03;5.00;;;2.22;;
55489;SDS011;44029;52.956;4.772;2023-08-06T11:47:29;4.22;;;1.17;;
55489;SDS011;44029;52.956;4.772;2023-08-06T11:49:55;1.42;;;0.75;;
55489;SDS011;44029;52.956;4.772;2023-08-06T11:52:21;4.15;;;1.40;;
55489;SDS011;44029;52.956;4.772;2023-08-06T11:55:02;5.38;;;3.28;;
55489;SDS011;44029;52.956;4.772;2023-08-06T11:57:33;2.00;;;1.08;;
55489;SDS011;44029;52.956;4.772;2023-08-06T12:02:38;3.20;;;2.40;;
55489;SDS011;44029;52.956;4.772;2023-08-06T12:07:42;1.83;;;1.45;;
55489;SDS011;44029;52.956;4.772;2023-08-06T12:10:09;2.35;;;1.30;;
55489;SDS011;44029;52.956;4.772;2023-08-06T12:12:36;4.82;;;1.30;;
55489;SDS011;44029;52.956;4.772;2023-08-06T12:15:02;4.18;;;2.33;;
55489;SDS011;44029;52.956;4.772;2023-08-06T12:17:29;8.43;;;4.10;;
55489;SDS011;44029;52.956;4.772;2023-08-06T12:19:54;2.30;;;1.08;;
55489;SDS011;44029;52.956;4.772;2023-08-06T12:22:19;5.47;;;2.92;;
55489;SDS011;44029;52.956;4.772;2023-08-06T12:24:45;6.65;;;2.30;;
55489;SDS011;44029;52.956;4.772;2023-08-06T12:27:12;1.30;;;0.75;;
55489;SDS011;44029;52.956;4.772;2023-08-06T12:29:41;4.43;;;1.20;;
55489;SDS011;44029;52.956;4.772;2023-08-06T12:32:10;3.88;;;1.40;;
55489;SDS011;44029;52.956;4.772;2023-08-06T12:34:37;3.72;;;2.83;;
55489;SDS011;44029;52.956;4.772;2023-08-06T12:37:04;5.68;;;1.90;;
55489;SDS011;44029;52.956;4.772;2023-08-06T12:39:29;12.20;;;7.35;;
55489;SDS011;44029;52.956;4.772;2023-08-06T12:41:56;0.68;;;0.47;;
55489;SDS011;44029;52.956;4.772;2023-08-06T12:44:22;9.52;;;3.30;;
55489;SDS011;44029;52.956;4.772;2023-08-06T12:46:51;11.75;;;5.43;;
55489;SDS011;44029;52.956;4.772;2023-08-06T12:49:19;6.57;;;2.75;;
55489;SDS011;44029;52.956;4.772;2023-08-06T12:51:48;7.20;;;2.85;;
55489;SDS011;44029;52.956;4.772;2023-08-06T12:54:14;23.80;;;10.98;;
55489;SDS011;44029;52.956;4.772;2023-08-06T12:56:39;1.48;;;0.90;;
55489;SDS011;44029;52.956;4.772;2023-08-06T12:59:05;2.05;;;0.90;;
55489;SDS011;44029;52.956;4.772;2023-08-06T13:01:30;16.75;;;8.95;;
55489;SDS011;44029;52.956;4.772;2023-08-06T13:03:55;13.82;;;5.78;;
55489;SDS011;44029;52.956;4.772;2023-08-06T13:06:21;2.58;;;0.93;;
55489;SDS011;44029;52.956;4.772;2023-08-06T13:08:46;3.00;;;1.50;;
55489;SDS011;44029;52.956;4.772;2023-08-06T13:11:12;11.48;;;5.88;;
55489;SDS011;44029;52.956;4.772;2023-08-06T13:13:37;3.58;;;1.70;;
55489;SDS011;44029;52.956;4.772;2023-08-06T13:16:03;3.08;;;0.75;;
55489;SDS011;44029;52.956;4.772;2023-08-06T13:18:28;3.17;;;0.70;;
55489;SDS011;44029;52.956;4.772;2023-08-06T13:20:54;3.45;;;1.08;;
55489;SDS011;44029;52.956;4.772;2023-08-06T13:23:19;46.47;;;20.92;;
55489;SDS011;44029;52.956;4.772;2023-08-06T13:25:45;7.05;;;1.83;;
55489;SDS011;44029;52.956;4.772;2023-08-06T13:28:11;3.42;;;0.73;;
55489;SDS011;44029;52.956;4.772;2023-08-06T13:30:36;5.10;;;0.68;;
55489;SDS011;44029;52.956;4.772;2023-08-06T13:33:06;4.00;;;0.90;;
55489;SDS011;44029;52.956;4.772;2023-08-06T13:35:35;14.77;;;2.17;;
55489;SDS011;44029;52.956;4.772;2023-08-06T13:38:01;13.38;;;1.08;;
55489;SDS011;44029;52.956;4.772;2023-08-06T13:40:32;5.93;;;3.42;;
55489;SDS011;44029;52.956;4.772;2023-08-06T13:42:59;12.50;;;1.98;;
55489;SDS011;44029;52.956;4.772;2023-08-06T13:45:25;7.43;;;1.17;;
55489;SDS011;44029;52.956;4.772;2023-08-06T13:47:50;1.40;;;0.63;;
55489;SDS011;44029;52.956;4.772;2023-08-06T13:50:16;2.67;;;0.45;;
55489;SDS011;44029;52.956;4.772;2023-08-06T13:52:41;15.07;;;5.90;;
55489;SDS011;44029;52.956;4.772;2023-08-06T13:55:07;14.88;;;5.40;;
55489;SDS011;44029;52.956;4.772;2023-08-06T13:57:34;8.10;;;2.08;;
55489;SDS011;44029;52.956;4.772;2023-08-06T13:59:59;7.63;;;2.03;;
55489;SDS011;44029;52.956;4.772;2023-08-06T14:02:25;8.80;;;2.38;;
55489;SDS011;44029;52.956;4.772;2023-08-06T14:04:54;13.07;;;1.35;;
55489;SDS011;44029;52.956;4.772;2023-08-06T14:07:19;22.05;;;9.23;;
55489;SDS011;44029;52.956;4.772;2023-08-06T14:09:45;12.68;;;3.85;;
55489;SDS011;44029;52.956;4.772;2023-08-06T14:12:12;12.27;;;0.70;;
55489;SDS011;44029;52.956;4.772;2023-08-06T14:14:37;24.80;;;7.22;;
55489;SDS011;44029;52.956;4.772;2023-08-06T14:17:03;6.10;;;1.92;;
55489;SDS011;44029;52.956;4.772;2023-08-06T14:19:28;7.13;;;2.25;;
55489;SDS011;44029;52.956;4.772;2023-08-06T14:21:54;22.08;;;8.65;;
55489;SDS011;44029;52.956;4.772;2023-08-06T14:24:20;10.60;;;4.18;;
55489;SDS011;44029;52.956;4.772;2023-08-06T14:26:45;7.78;;;2.47;;
55489;SDS011;44029;52.956;4.772;2023-08-06T14:29:11;12.57;;;6.15;;
55489;SDS011;44029;52.956;4.772;2023-08-06T14:31:38;4.40;;;1.60;;
55489;SDS011;44029;52.956;4.772;2023-08-06T14:34:04;4.32;;;1.00;;
55489;SDS011;44029;52.956;4.772;2023-08-06T14:36:29;9.30;;;1.15;;
55489;SDS011;44029;52.956;4.772;2023-08-06T14:38:55;9.18;;;1.77;;
55489;SDS011;44029;52.956;4.772;2023-08-06T14:41:20;8.82;;;3.63;;
55489;SDS011;44029;52.956;4.772;2023-08-06T14:43:46;1.98;;;1.05;;
55489;SDS011;44029;52.956;4.772;2023-08-06T14:46:12;21.15;;;5.90;;
55489;SDS011;44029;52.956;4.772;2023-08-06T14:48:37;9.63;;;2.97;;